createdAt,value
2023-04-15T00:02:24.169Z,59.57
2023-04-15T00:04:54.833Z,60.15
2023-04-15T00:07:25.294Z,59.95
2023-04-15T00:09:57.882Z,60.18
2023-04-15T00:12:28.505Z,60.57
2023-04-15T00:15:01.683Z,60.79
2023-04-15T00:17:32.405Z,61.01
2023-04-15T00:20:03.828Z,61.05
2023-04-15T00:22:34.589Z,61.21
2023-04-15T00:25:05.078Z,61.59
2023-04-15T00:27:35.593Z,61.98
2023-04-15T00:30:10.795Z,62.10
2023-04-15T00:32:42.612Z,62.50
2023-04-15T00:35:13.160Z,62.82
2023-04-15T00:37:45.953Z,63.03
2023-04-15T00:40:20.804Z,63.48
2023-04-15T00:42:51.570Z,63.78
2023-04-15T00:45:24.838Z,64.12
2023-04-15T00:47:58.702Z,64.40
2023-04-15T00:50:29.166Z,64.53
2023-04-15T00:52:59.787Z,64.73
2023-04-15T00:55:30.273Z,64.71
2023-04-15T00:58:01.172Z,64.84
2023-04-15T01:00:34.790Z,64.80
2023-04-15T01:03:05.535Z,64.95
2023-04-15T01:05:37.059Z,65.17
2023-04-15T01:08:08.024Z,65.29
2023-04-15T01:10:38.991Z,65.37
2023-04-15T01:13:09.690Z,65.78
2023-04-15T01:15:43.753Z,65.91
2023-04-15T01:18:14.831Z,66.15
2023-04-15T01:20:45.360Z,66.18
2023-04-15T01:23:17.178Z,66.20
2023-04-15T01:25:50.861Z,66.22
2023-04-15T01:28:26.161Z,66.30
2023-04-15T01:31:10.985Z,66.29
2023-04-15T01:33:42.635Z,66.48
2023-04-15T01:36:32.194Z,66.62
2023-04-15T01:39:02.889Z,66.79
2023-04-15T01:41:36.007Z,67.03
2023-04-15T01:44:08.409Z,67.20
2023-04-15T01:46:40.833Z,67.56
2023-04-15T01:49:12.800Z,67.55
2023-04-15T01:51:44.431Z,67.85
2023-04-15T01:54:17.990Z,67.91
2023-04-15T01:56:52.299Z,68.28
2023-04-15T01:59:24.065Z,68.59
2023-04-15T02:01:56.469Z,68.97
2023-04-15T02:04:28.215Z,69.82
2023-04-15T02:07:03.122Z,70.01
2023-04-15T02:09:34.528Z,70.20
2023-04-15T02:12:11.890Z,70.37
2023-04-15T02:14:43.702Z,70.82
2023-04-15T02:17:15.818Z,71.42
2023-04-15T02:19:48.298Z,71.76
2023-04-15T02:22:20.653Z,72.56
2023-04-15T02:24:52.247Z,73.31
2023-04-15T02:27:26.593Z,74.20
2023-04-15T02:29:58.333Z,74.55
2023-04-15T02:32:29.941Z,74.90
2023-04-15T02:35:07.085Z,75.00
2023-04-15T02:37:45.935Z,74.98
2023-04-15T02:40:17.925Z,74.80
2023-04-15T02:42:53.144Z,74.82
2023-04-15T02:45:27.771Z,74.65
2023-04-15T02:47:59.479Z,74.24
2023-04-15T02:50:31.953Z,74.03
2023-04-15T02:53:04.545Z,74.11
2023-04-15T02:55:36.684Z,73.95
2023-04-15T02:58:11.252Z,74.25
2023-04-15T03:00:42.951Z,74.36
2023-04-15T03:03:15.516Z,74.24
2023-04-15T03:05:48.033Z,74.29
2023-04-15T03:08:19.696Z,74.20
2023-04-15T03:10:52.655Z,73.94
2023-04-15T03:13:26.999Z,73.94
2023-04-15T03:15:59.680Z,73.80
2023-04-15T03:18:32.317Z,73.51
2023-04-15T03:21:07.563Z,73.39
2023-04-15T03:23:41.718Z,74.25
2023-04-15T03:26:13.502Z,75.06
2023-04-15T03:28:48.143Z,75.34
2023-04-15T03:31:20.867Z,75.68
2023-04-15T03:33:52.949Z,75.80
2023-04-15T03:36:24.527Z,75.97
2023-04-15T03:38:56.452Z,75.96
2023-04-15T03:41:28.608Z,76.36
2023-04-15T03:44:02.961Z,76.27
2023-04-15T03:46:34.674Z,76.41
2023-04-15T03:49:06.554Z,76.26
2023-04-15T03:51:38.184Z,76.11
2023-04-15T03:54:09.882Z,76.13
2023-04-15T03:56:41.601Z,76.14
2023-04-15T03:59:15.924Z,77.21
2023-04-15T04:01:47.652Z,77.97
2023-04-15T04:04:19.658Z,77.75
2023-04-15T04:06:51.290Z,77.88
2023-04-15T04:09:22.995Z,77.99
2023-04-15T04:11:54.686Z,78.13
2023-04-15T04:14:29.998Z,78.15
2023-04-15T04:17:01.901Z,78.10
2023-04-15T04:19:33.901Z,78.24
2023-04-15T04:22:05.655Z,78.32
2023-04-15T04:24:37.418Z,78.43
2023-04-15T04:27:09.245Z,78.38
2023-04-15T04:29:43.661Z,78.31
2023-04-15T04:32:15.830Z,78.16
2023-04-15T04:34:48.368Z,77.96
2023-04-15T04:37:20.007Z,78.05
2023-04-15T04:39:51.782Z,77.96
2023-04-15T04:42:23.361Z,78.34
2023-04-15T04:44:57.656Z,78.44
2023-04-15T04:47:30.298Z,78.50
2023-04-15T04:50:01.910Z,78.11
2023-04-15T04:52:33.523Z,78.54
2023-04-15T04:55:05.252Z,78.43
2023-04-15T04:57:37.888Z,78.41
2023-04-15T05:00:14.311Z,78.41
2023-04-15T05:02:46.284Z,78.31
2023-04-15T05:05:18.046Z,78.72
2023-04-15T05:07:50.748Z,78.67
2023-04-15T05:10:22.353Z,78.70
2023-04-15T05:12:54.055Z,78.96
2023-04-15T05:15:28.560Z,79.20
2023-04-15T05:18:00.314Z,79.27
2023-04-15T05:20:32.169Z,79.45
2023-04-15T05:23:03.829Z,79.91
2023-04-15T05:25:35.531Z,80.22
2023-04-15T05:28:07.182Z,80.52
2023-04-15T05:30:42.238Z,80.88
2023-04-15T05:33:13.979Z,81.17
2023-04-15T05:35:45.713Z,81.55
2023-04-15T05:38:17.308Z,81.44
2023-04-15T05:40:48.899Z,81.42
2023-04-15T05:43:22.730Z,81.15
2023-04-15T05:45:57.271Z,81.31
2023-04-15T05:48:29.075Z,81.29
2023-04-15T05:51:01.019Z,81.70
2023-04-15T05:53:32.879Z,81.67
2023-04-15T05:56:04.439Z,80.81
2023-04-15T05:58:36.285Z,80.23
2023-04-15T06:01:10.855Z,80.46
2023-04-15T06:03:42.816Z,80.49
2023-04-15T06:06:14.741Z,80.48
2023-04-15T06:08:46.438Z,80.63
2023-04-15T06:11:18.519Z,80.89
2023-04-15T06:13:50.280Z,80.72
2023-04-15T06:16:24.555Z,79.92
2023-04-15T06:18:56.295Z,79.71
2023-04-15T06:21:28.111Z,80.06
2023-04-15T06:23:59.840Z,79.93
2023-04-15T06:26:31.830Z,80.56
2023-04-15T06:29:04.001Z,80.13
2023-04-15T06:31:38.412Z,80.10
2023-04-15T06:34:10.069Z,80.46
2023-04-15T06:36:41.634Z,80.91
2023-04-15T06:39:13.707Z,81.40
2023-04-15T06:41:45.504Z,82.07
2023-04-15T06:44:17.396Z,82.36
2023-04-15T06:46:51.662Z,82.72
2023-04-15T06:49:23.268Z,82.80
2023-04-15T06:51:54.938Z,83.14
2023-04-15T06:54:26.744Z,82.33
2023-04-15T06:56:58.462Z,81.94
2023-04-15T06:59:30.169Z,81.71
2023-04-15T07:02:05.151Z,82.03
2023-04-15T07:04:36.593Z,82.67
2023-04-15T07:07:08.297Z,81.96
2023-04-15T07:09:39.901Z,82.20
2023-04-15T07:12:11.753Z,82.58
2023-04-15T07:14:43.580Z,82.32
2023-04-15T07:17:18.014Z,80.97
2023-04-15T07:19:49.691Z,78.64
2023-04-15T07:22:21.598Z,78.18
2023-04-15T07:24:53.163Z,77.72
2023-04-15T07:27:25.020Z,76.42
2023-04-15T07:29:56.607Z,76.48
2023-04-15T07:32:31.278Z,75.08
2023-04-15T07:35:03.906Z,74.54
2023-04-15T07:37:35.598Z,74.96
2023-04-15T07:40:09.708Z,73.72
2023-04-15T07:42:43.690Z,72.86
2023-04-15T07:45:15.691Z,71.81
2023-04-15T07:47:51.133Z,72.21
2023-04-15T07:50:23.029Z,71.15
2023-04-15T07:52:57.545Z,71.12
2023-04-15T07:55:30.842Z,71.77
2023-04-15T07:58:02.446Z,72.35
2023-04-15T08:00:34.120Z,71.84
2023-04-15T08:03:08.693Z,70.39
2023-04-15T08:05:40.451Z,70.79
2023-04-15T08:08:12.529Z,70.59
2023-04-15T08:10:44.174Z,68.34
2023-04-15T08:13:16.387Z,67.27
2023-04-15T08:15:48.158Z,68.35
2023-04-15T08:18:22.376Z,69.09
2023-04-15T08:20:53.978Z,68.17
2023-04-15T08:23:25.802Z,67.70
2023-04-15T08:25:57.852Z,67.14
2023-04-15T08:28:29.438Z,67.51
2023-04-15T08:31:01.140Z,67.28
2023-04-15T08:33:35.387Z,66.36
2023-04-15T08:36:07.890Z,66.43
2023-04-15T08:38:39.834Z,65.23
2023-04-15T08:41:24.209Z,63.43
2023-04-15T08:44:00.692Z,62.42
2023-04-15T08:46:34.944Z,62.63
2023-04-15T08:49:15.260Z,63.73
2023-04-15T08:51:47.025Z,64.53
2023-04-15T08:54:18.764Z,61.25
2023-04-15T08:56:51.597Z,60.82
2023-04-15T08:59:24.067Z,60.83
2023-04-15T09:01:56.822Z,61.75
2023-04-15T09:04:31.683Z,61.06
2023-04-15T09:07:04.947Z,61.81
2023-04-15T09:09:37.679Z,60.56
2023-04-15T09:12:11.575Z,61.45
2023-04-15T09:14:44.919Z,61.71
2023-04-15T09:17:16.880Z,60.80
2023-04-15T09:19:51.417Z,60.05
2023-04-15T09:22:24.499Z,61.28
2023-04-15T09:24:56.072Z,61.89
2023-04-15T09:27:27.844Z,60.85
2023-04-15T09:29:59.325Z,61.30
2023-04-15T09:32:31.070Z,62.19
2023-04-15T09:35:15.753Z,61.36
2023-04-15T09:37:47.641Z,61.93
2023-04-15T09:40:34.364Z,59.07
2023-04-15T09:43:07.285Z,58.97
2023-04-15T09:45:41.418Z,58.70
2023-04-15T09:48:21.809Z,58.04
2023-04-15T09:50:57.982Z,59.11
2023-04-15T09:53:31.714Z,59.74
2023-04-15T09:56:04.447Z,59.30
2023-04-15T09:58:39.018Z,57.00
2023-04-15T10:01:11.820Z,57.19
2023-04-15T10:03:45.468Z,56.88
2023-04-15T10:06:20.156Z,55.44
2023-04-15T10:08:52.209Z,55.78
2023-04-15T10:11:25.606Z,55.40
2023-04-15T10:14:00.089Z,54.46
2023-04-15T10:16:35.844Z,54.35
2023-04-15T10:19:09.690Z,54.79
2023-04-15T10:21:45.281Z,55.80
2023-04-15T10:24:19.493Z,54.59
2023-04-15T10:26:51.592Z,50.69
2023-04-15T10:29:23.961Z,50.59
2023-04-15T10:31:56.607Z,50.24
2023-04-15T10:34:29.019Z,51.29
2023-04-15T10:37:06.874Z,49.86
2023-04-15T10:39:46.819Z,49.10
2023-04-15T10:42:20.325Z,48.07
2023-04-15T10:44:54.628Z,47.15
2023-04-15T10:47:26.280Z,48.37
2023-04-15T10:50:02.657Z,47.67
2023-04-15T10:52:37.333Z,48.71
2023-04-15T10:55:18.188Z,49.31
2023-04-15T10:57:49.875Z,48.79
2023-04-15T11:00:24.580Z,49.22
2023-04-15T11:02:58.661Z,47.77
2023-04-15T11:05:56.202Z,46.88
2023-04-15T11:09:06.086Z,47.98
2023-04-15T11:12:09.044Z,48.80
2023-04-15T11:14:44.572Z,47.54
2023-04-15T11:17:16.263Z,46.77
2023-04-15T11:19:47.967Z,47.78
2023-04-15T11:22:19.700Z,46.54
2023-04-15T11:24:54.047Z,46.09
2023-04-15T11:27:26.403Z,46.98
2023-04-15T11:29:58.075Z,47.35
2023-04-15T11:32:32.654Z,47.55
2023-04-15T11:35:04.527Z,48.24
2023-04-15T11:37:36.277Z,48.30
2023-04-15T11:40:13.024Z,49.56
2023-04-15T11:42:49.448Z,50.61
2023-04-15T11:45:21.844Z,49.09
2023-04-15T11:47:53.575Z,49.42
2023-04-15T11:50:26.798Z,48.50
2023-04-15T11:52:58.355Z,47.47
2023-04-15T11:55:31.936Z,47.03
2023-04-15T11:58:16.818Z,46.75
2023-04-15T12:00:52.749Z,45.53
2023-04-15T12:03:27.790Z,47.09
2023-04-15T12:06:19.673Z,46.14
2023-04-15T12:09:07.031Z,46.45
2023-04-15T12:11:53.107Z,46.46
2023-04-15T12:14:28.654Z,46.49
2023-04-15T12:17:02.297Z,46.61
2023-04-15T12:19:35.106Z,46.26
2023-04-15T12:22:07.974Z,47.30
2023-04-15T12:24:41.245Z,47.85
2023-04-15T12:27:19.577Z,47.99
2023-04-15T12:29:50.033Z,50.21
2023-04-15T12:32:22.193Z,55.70
2023-04-15T12:34:55.467Z,58.91
2023-04-15T12:37:26.460Z,60.06
2023-04-15T12:39:56.920Z,61.16
2023-04-15T12:42:30.340Z,61.73
2023-04-15T12:45:00.657Z,61.99
2023-04-15T12:47:31.194Z,63.30
2023-04-15T12:50:01.680Z,63.30
2023-04-15T12:52:32.071Z,63.44
2023-04-15T12:55:02.553Z,63.56
2023-04-15T12:57:35.572Z,63.94
2023-04-15T13:00:08.283Z,63.92
2023-04-15T13:02:38.882Z,57.68
2023-04-15T13:05:10.729Z,55.99
2023-04-15T13:07:41.169Z,48.86
2023-04-15T13:10:13.124Z,50.10
2023-04-15T13:12:47.024Z,52.57
2023-04-15T13:15:20.814Z,53.09
2023-04-15T13:17:51.375Z,50.20
2023-04-15T13:20:22.384Z,50.73
2023-04-15T13:22:52.739Z,51.86
2023-04-15T13:25:23.595Z,51.97
2023-04-15T13:27:57.873Z,51.31
2023-04-15T13:30:28.301Z,50.79
2023-04-15T13:32:58.823Z,50.06
2023-04-15T13:35:29.284Z,50.55
2023-04-15T13:37:59.797Z,47.38
2023-04-15T13:40:30.580Z,46.97
2023-04-15T13:43:04.435Z,46.42
2023-04-15T13:45:35.241Z,46.64
2023-04-15T13:48:05.750Z,43.99
2023-04-15T13:50:36.302Z,41.92
2023-04-15T13:53:06.689Z,41.58
2023-04-15T13:55:39.122Z,39.48
2023-04-15T13:58:12.329Z,38.84
2023-04-15T14:00:42.685Z,39.84
2023-04-15T14:03:13.188Z,41.25
2023-04-15T14:05:43.721Z,41.29
2023-04-15T14:08:14.063Z,41.19
2023-04-15T14:10:48.599Z,40.66
2023-04-15T14:13:21.962Z,40.77
2023-04-15T14:15:52.357Z,41.51
2023-04-15T14:18:22.996Z,41.42
2023-04-15T14:20:53.528Z,40.51
2023-04-15T14:23:24.041Z,42.06
2023-04-15T14:25:54.635Z,42.65
2023-04-15T14:28:27.966Z,43.24
2023-04-15T14:30:58.433Z,43.88
2023-04-15T14:33:29.010Z,43.06
2023-04-15T14:36:00.012Z,42.58
2023-04-15T14:38:30.722Z,43.02
2023-04-15T14:41:02.153Z,41.93
2023-04-15T14:43:35.255Z,42.28
2023-04-15T14:46:05.967Z,41.87
2023-04-15T14:48:36.513Z,42.07
2023-04-15T14:51:06.921Z,42.74
2023-04-15T14:53:37.327Z,41.94
2023-04-15T14:56:08.589Z,42.71
2023-04-15T14:58:41.547Z,42.94
2023-04-15T15:01:12.936Z,43.59
2023-04-15T15:03:43.827Z,43.57
2023-04-15T15:06:14.397Z,43.84
2023-04-15T15:08:44.744Z,44.65
2023-04-15T15:11:15.149Z,45.20
2023-04-15T15:13:48.113Z,45.56
2023-04-15T15:16:18.592Z,45.84
2023-04-15T15:18:48.978Z,46.58
2023-04-15T15:21:19.411Z,46.66
2023-04-15T15:23:49.900Z,47.04
2023-04-15T15:26:20.556Z,47.73
2023-04-15T15:28:53.703Z,48.35
2023-04-15T15:31:24.087Z,48.58
2023-04-15T15:33:54.496Z,48.57
2023-04-15T15:36:24.878Z,49.09
2023-04-15T15:38:55.625Z,49.08
2023-04-15T15:41:26.209Z,48.84
2023-04-15T15:43:59.280Z,48.78
2023-04-15T15:46:31.578Z,48.42
2023-04-15T15:49:02.594Z,48.51
2023-04-15T15:51:33.415Z,48.37
2023-04-15T15:54:03.989Z,49.41
2023-04-15T15:56:35.195Z,49.08
2023-04-15T15:59:08.267Z,51.31
2023-04-15T16:01:38.801Z,52.81
2023-04-15T16:04:10.504Z,53.93
2023-04-15T16:06:41.379Z,55.83
2023-04-15T16:09:11.833Z,57.80
2023-04-15T16:11:42.637Z,59.38
2023-04-15T16:14:15.815Z,60.66
2023-04-15T16:16:46.283Z,63.03
2023-04-15T16:19:16.640Z,63.95
2023-04-15T16:21:47.488Z,65.69
2023-04-15T16:24:17.975Z,66.99
2023-04-15T16:26:48.504Z,67.70
2023-04-15T16:29:21.443Z,68.87
2023-04-15T16:31:54.985Z,69.87
2023-04-15T16:34:25.518Z,70.17
2023-04-15T16:36:56.308Z,70.92
2023-04-15T16:39:27.357Z,71.40
2023-04-15T16:41:58.104Z,71.66
2023-04-15T16:44:31.199Z,72.51
2023-04-15T16:47:02.398Z,73.86
2023-04-15T16:49:35.049Z,74.42
2023-04-15T16:52:05.453Z,74.59
2023-04-15T16:54:40.757Z,75.29
2023-04-15T16:57:11.228Z,75.56
2023-04-15T16:59:44.170Z,75.25
2023-04-15T17:02:17.682Z,75.91
2023-04-15T17:04:48.151Z,76.16
2023-04-15T17:07:18.535Z,76.20
2023-04-15T17:09:48.894Z,76.32
2023-04-15T17:12:19.349Z,76.93
2023-04-15T17:14:52.505Z,76.92
2023-04-15T17:17:23.082Z,77.29
2023-04-15T17:19:53.697Z,76.92
2023-04-15T17:22:24.260Z,78.04
2023-04-15T17:24:54.914Z,78.44
2023-04-15T17:27:27.734Z,79.02
2023-04-15T17:30:01.512Z,79.50
2023-04-15T17:32:51.960Z,79.36
2023-04-15T17:35:42.684Z,79.52
2023-04-15T17:38:33.173Z,80.25
2023-04-15T17:41:23.525Z,79.05
2023-04-15T17:44:13.781Z,79.34
2023-04-15T17:47:06.848Z,79.93
2023-04-15T17:49:57.265Z,79.12
2023-04-15T17:52:48.558Z,79.04
2023-04-15T17:55:39.744Z,78.08
2023-04-15T17:58:30.285Z,78.31
2023-04-15T18:01:22.509Z,78.71
2023-04-15T18:04:16.001Z,78.89
2023-04-15T18:07:07.629Z,80.01
2023-04-15T18:10:00.640Z,80.84
2023-04-15T18:12:51.191Z,81.42
2023-04-15T18:15:41.637Z,81.47
2023-04-15T18:18:32.105Z,82.11
2023-04-15T18:21:06.468Z,82.62
2023-04-15T18:23:37.027Z,83.02
2023-04-15T18:26:07.512Z,82.53
2023-04-15T18:28:38.081Z,82.83
2023-04-15T18:31:09.001Z,83.50
2023-04-15T18:33:39.555Z,83.73
2023-04-15T18:36:13.201Z,83.94
2023-04-15T18:38:43.926Z,84.29
2023-04-15T18:41:14.287Z,84.64
2023-04-15T18:43:44.685Z,85.87
2023-04-15T18:46:15.151Z,86.43
2023-04-15T18:48:45.710Z,86.66
2023-04-15T18:51:18.666Z,87.28
2023-04-15T18:53:49.323Z,87.19
2023-04-15T18:56:19.738Z,87.63
2023-04-15T18:59:27.855Z,87.98
2023-04-15T19:01:40.861Z,88.50
2023-04-15T19:04:11.825Z,88.84
2023-04-15T19:06:44.863Z,89.19
2023-04-15T19:09:15.472Z,89.56
2023-04-15T19:11:46.483Z,90.40
2023-04-15T19:14:16.989Z,90.92
2023-04-15T19:16:47.502Z,91.47
2023-04-15T19:19:18.094Z,91.54
2023-04-15T19:21:51.155Z,91.67
2023-04-15T19:24:22.486Z,92.32
2023-04-15T19:26:53.322Z,92.47
2023-04-15T19:29:23.722Z,92.86
2023-04-15T19:31:54.464Z,93.29
2023-04-15T19:34:25.191Z,93.72
2023-04-15T19:36:59.334Z,93.78
2023-04-15T19:39:30.062Z,94.29
2023-04-15T19:42:00.448Z,94.41
2023-04-15T19:44:30.783Z,94.58
2023-04-15T19:47:01.146Z,94.54
2023-04-15T19:49:31.571Z,94.25
2023-04-15T19:52:04.530Z,94.73
2023-04-15T19:54:35.323Z,95.11
2023-04-15T19:57:05.690Z,95.52
2023-04-15T19:59:36.134Z,95.84
2023-04-15T20:02:06.942Z,95.85
2023-04-15T20:04:37.484Z,96.26
2023-04-15T20:07:10.769Z,95.97
2023-04-15T20:09:41.118Z,95.98
2023-04-15T20:12:50.271Z,95.81
2023-04-15T20:15:01.857Z,96.47
2023-04-15T20:17:35.910Z,97.36
2023-04-15T20:20:08.236Z,97.93
2023-04-15T20:22:41.281Z,98.02
2023-04-15T20:25:12.748Z,98.29
2023-04-15T20:27:43.241Z,98.58
2023-04-15T20:30:14.601Z,98.52
2023-04-15T20:32:45.155Z,98.40
2023-04-15T20:35:15.714Z,98.17
2023-04-15T20:37:49.474Z,97.98
2023-04-15T20:40:20.383Z,98.08
2023-04-15T20:42:51.113Z,98.24
2023-04-15T20:45:21.657Z,98.36
2023-04-15T20:47:52.030Z,98.79
2023-04-15T20:50:22.571Z,99.47
2023-04-15T20:52:55.574Z,99.33
2023-04-15T20:55:26.292Z,99.72
2023-04-15T20:57:57.110Z,99.86
2023-04-15T21:00:27.607Z,99.95
2023-04-15T21:02:58.266Z,100.00
2023-04-15T21:05:28.890Z,100.00
2023-04-15T21:08:01.806Z,100.00
2023-04-15T21:10:35.453Z,100.00
2023-04-15T21:13:06.922Z,100.00
2023-04-15T21:15:38.386Z,100.00
2023-04-15T21:18:08.974Z,100.00
2023-04-15T21:20:39.482Z,100.00
2023-04-15T21:23:13.123Z,100.00
2023-04-15T21:25:43.588Z,100.00
2023-04-15T21:28:13.967Z,100.00
2023-04-15T21:30:45.905Z,100.00
2023-04-15T21:33:16.530Z,100.00
2023-04-15T21:35:46.867Z,100.00
2023-04-15T21:38:21.322Z,100.00
2023-04-15T21:40:53.580Z,100.00
2023-04-15T21:43:25.825Z,100.00
2023-04-15T21:46:21.125Z,100.00
2023-04-15T21:48:48.957Z,100.00
2023-04-15T21:51:19.517Z,100.00
2023-04-15T21:53:52.827Z,100.00
2023-04-15T21:56:24.493Z,100.00
2023-04-15T21:58:59.325Z,100.00
2023-04-15T22:01:30.062Z,100.00
2023-04-15T22:04:00.898Z,100.00
2023-04-15T22:06:31.885Z,100.00
2023-04-15T22:09:05.197Z,100.00
2023-04-15T22:11:35.961Z,100.00
2023-04-15T22:14:06.679Z,100.00
2023-04-15T22:16:37.133Z,100.00
2023-04-15T22:19:07.951Z,100.00
2023-04-15T22:21:38.711Z,100.00
2023-04-15T22:24:31.611Z,100.00
2023-04-15T22:27:02.381Z,100.00
2023-04-15T22:29:33.103Z,100.00
2023-04-15T22:32:03.732Z,100.00
2023-04-15T22:34:34.189Z,100.00
2023-04-15T22:37:04.587Z,100.00
2023-04-15T22:39:37.715Z,100.00
2023-04-15T22:42:08.079Z,100.00
2023-04-15T22:44:38.543Z,100.00
2023-04-15T22:47:09.120Z,100.00
2023-04-15T22:49:39.913Z,100.00
2023-04-15T22:52:12.432Z,100.00
2023-04-15T22:54:53.510Z,100.00
2023-04-15T22:57:23.975Z,100.00
2023-04-15T22:59:54.322Z,100.00
2023-04-15T23:02:24.940Z,100.00
2023-04-15T23:04:55.588Z,100.00
2023-04-15T23:07:26.144Z,100.00
2023-04-15T23:10:01.229Z,100.00
2023-04-15T23:12:31.679Z,100.00
2023-04-15T23:15:02.250Z,100.00
2023-04-15T23:17:32.710Z,100.00
2023-04-15T23:20:03.235Z,100.00
2023-04-15T23:22:37.570Z,100.00
2023-04-15T23:25:12.250Z,100.00
2023-04-15T23:27:42.606Z,100.00
2023-04-15T23:30:13.578Z,100.00
2023-04-15T23:32:44.085Z,100.00
2023-04-15T23:35:14.592Z,100.00
2023-04-15T23:37:44.936Z,100.00
2023-04-15T23:40:18.553Z,100.00
2023-04-15T23:42:49.085Z,100.00
2023-04-15T23:45:19.545Z,100.00
2023-04-15T23:47:49.880Z,100.00
2023-04-15T23:50:20.655Z,100.00
2023-04-15T23:52:51.019Z,100.00
2023-04-15T23:55:24.371Z,100.00
2023-04-15T23:57:54.669Z,100.00
